createdAt,value
2022-07-27T00:01:09.859Z,2.50
2022-07-27T00:03:38.816Z,2.22
2022-07-27T00:06:08.275Z,2.40
2022-07-27T00:08:36.381Z,2.28
2022-07-27T00:11:04.695Z,2.20
2022-07-27T00:13:33.335Z,2.40
2022-07-27T00:16:01.595Z,2.30
2022-07-27T00:18:29.606Z,2.35
2022-07-27T00:20:57.527Z,2.28
2022-07-27T00:23:26.925Z,2.20
2022-07-27T00:25:54.830Z,2.08
2022-07-27T00:28:22.801Z,2.08
2022-07-27T00:30:51.015Z,2.38
2022-07-27T00:33:18.867Z,2.30
2022-07-27T00:35:46.809Z,2.30
2022-07-27T00:38:16.388Z,2.50
2022-07-27T00:40:46.041Z,2.15
2022-07-27T00:43:15.153Z,2.45
2022-07-27T00:45:43.131Z,2.25
2022-07-27T00:48:11.060Z,2.20
2022-07-27T00:50:41.727Z,2.53
2022-07-27T00:53:10.097Z,2.80
2022-07-27T00:55:39.356Z,2.55
2022-07-27T00:58:09.773Z,2.30
2022-07-27T01:00:38.186Z,2.42
2022-07-27T01:03:09.506Z,2.53
2022-07-27T01:05:43.131Z,2.47
2022-07-27T01:08:14.161Z,2.72
2022-07-27T01:10:43.091Z,2.60
2022-07-27T01:13:13.562Z,3.03
2022-07-27T01:15:43.155Z,2.70
2022-07-27T01:18:26.788Z,2.58
2022-07-27T01:20:54.809Z,2.60
2022-07-27T01:23:24.377Z,2.90
2022-07-27T01:25:52.394Z,2.80
2022-07-27T01:28:20.467Z,3.20
2022-07-27T01:30:48.483Z,3.30
2022-07-27T01:33:16.927Z,2.90
2022-07-27T01:35:44.787Z,3.28
2022-07-27T01:38:13.287Z,2.80
2022-07-27T01:40:42.561Z,2.80
2022-07-27T01:43:10.613Z,2.90
2022-07-27T01:45:40.140Z,3.00
2022-07-27T01:48:08.258Z,2.70
2022-07-27T01:50:36.370Z,2.80
2022-07-27T01:53:04.381Z,3.28
2022-07-27T01:55:38.470Z,3.20
2022-07-27T01:58:09.383Z,3.55
2022-07-27T02:00:38.670Z,3.10
2022-07-27T02:03:10.968Z,3.63
2022-07-27T02:05:40.001Z,3.30
2022-07-27T02:08:09.383Z,3.30
2022-07-27T02:10:58.237Z,3.15
2022-07-27T02:13:26.690Z,3.50
2022-07-27T02:15:55.022Z,3.28
2022-07-27T02:18:36.302Z,3.08
2022-07-27T02:21:06.378Z,2.90
2022-07-27T02:23:34.739Z,3.35
2022-07-27T02:26:02.836Z,3.30
2022-07-27T02:28:32.092Z,3.30
2022-07-27T02:31:00.399Z,3.40
2022-07-27T02:33:28.646Z,3.40
2022-07-27T02:35:56.565Z,3.70
2022-07-27T02:38:25.607Z,3.60
2022-07-27T02:40:53.524Z,3.10
2022-07-27T02:43:21.382Z,3.55
2022-07-27T02:45:52.756Z,3.63
2022-07-27T02:48:20.741Z,3.58
2022-07-27T02:50:48.687Z,3.27
2022-07-27T02:53:16.615Z,3.50
2022-07-27T02:55:44.547Z,3.60
2022-07-27T02:58:12.445Z,2.97
2022-07-27T03:00:40.488Z,3.35
2022-07-27T03:03:09.776Z,3.58
2022-07-27T03:05:37.656Z,3.40
2022-07-27T03:08:06.100Z,3.00
2022-07-27T03:10:34.036Z,3.33
2022-07-27T03:13:01.974Z,2.95
2022-07-27T03:15:30.512Z,2.97
2022-07-27T03:17:58.404Z,2.85
2022-07-27T03:20:27.827Z,3.10
2022-07-27T03:22:55.904Z,3.17
2022-07-27T03:25:23.996Z,3.00
2022-07-27T03:27:51.886Z,3.13
2022-07-27T03:30:19.803Z,2.78
2022-07-27T03:32:48.216Z,2.88
2022-07-27T03:35:16.295Z,3.40
2022-07-27T03:37:45.573Z,3.10
2022-07-27T03:40:13.703Z,3.45
2022-07-27T03:42:41.663Z,3.90
2022-07-27T03:45:10.705Z,3.85
2022-07-27T03:47:38.636Z,3.60
2022-07-27T03:50:07.363Z,3.50
2022-07-27T03:52:35.216Z,3.70
2022-07-27T03:55:04.628Z,3.70
2022-07-27T03:57:32.558Z,3.58
2022-07-27T04:00:00.600Z,3.60
2022-07-27T04:02:28.537Z,3.60
2022-07-27T04:04:56.489Z,3.83
2022-07-27T04:07:24.370Z,3.55
2022-07-27T04:09:52.415Z,3.60
2022-07-27T04:12:21.651Z,3.80
2022-07-27T04:14:49.669Z,3.97
2022-07-27T04:17:55.025Z,3.47
2022-07-27T04:20:06.885Z,3.95
2022-07-27T04:22:34.787Z,3.42
2022-07-27T04:25:02.739Z,3.72
2022-07-27T04:27:31.968Z,4.32
2022-07-27T04:29:59.873Z,4.38
2022-07-27T04:32:27.864Z,4.30
2022-07-27T04:34:55.774Z,3.80
2022-07-27T04:37:23.814Z,3.83
2022-07-27T04:39:51.748Z,3.60
2022-07-27T04:42:19.639Z,3.47
2022-07-27T04:44:48.839Z,3.55
2022-07-27T04:47:16.752Z,3.42
2022-07-27T04:49:44.677Z,3.50
2022-07-27T04:52:16.193Z,3.60
2022-07-27T04:54:44.331Z,3.67
2022-07-27T04:57:12.377Z,3.60
2022-07-27T04:59:40.313Z,3.35
2022-07-27T05:02:09.545Z,3.92
2022-07-27T05:04:37.511Z,3.90
2022-07-27T05:07:05.519Z,4.30
2022-07-27T05:09:33.556Z,4.10
2022-07-27T05:12:01.453Z,3.92
2022-07-27T05:14:29.441Z,4.13
2022-07-27T05:16:57.390Z,4.00
2022-07-27T05:19:40.569Z,3.58
2022-07-27T05:22:08.946Z,3.78
2022-07-27T05:24:36.907Z,3.77
2022-07-27T05:27:05.988Z,3.70
2022-07-27T05:29:33.876Z,4.13
2022-07-27T05:32:01.770Z,4.60
2022-07-27T05:34:31.154Z,3.90
2022-07-27T05:36:59.061Z,4.18
2022-07-27T05:39:26.929Z,4.30
2022-07-27T05:41:54.883Z,4.15
2022-07-27T05:44:22.939Z,3.95
2022-07-27T05:46:50.823Z,4.30
2022-07-27T05:49:18.770Z,4.10
2022-07-27T05:51:48.069Z,4.32
2022-07-27T05:54:16.038Z,4.15
2022-07-27T05:56:43.970Z,4.20
2022-07-27T05:59:12.260Z,4.53
2022-07-27T06:01:40.800Z,5.40
2022-07-27T06:04:08.736Z,4.93
2022-07-27T06:07:00.398Z,5.47
2022-07-27T06:09:29.697Z,5.83
2022-07-27T06:11:57.602Z,5.53
2022-07-27T06:14:25.575Z,5.88
2022-07-27T06:16:53.635Z,5.70
2022-07-27T06:19:21.573Z,5.18
2022-07-27T06:21:53.602Z,5.40
2022-07-27T06:24:21.985Z,5.32
2022-07-27T06:26:51.551Z,5.03
2022-07-27T06:29:19.432Z,4.78
2022-07-27T06:31:47.430Z,4.60
2022-07-27T06:34:15.729Z,4.30
2022-07-27T06:36:45.262Z,4.40
2022-07-27T06:39:13.875Z,4.00
2022-07-27T06:41:42.182Z,4.45
2022-07-27T06:44:16.132Z,3.58
2022-07-27T06:46:44.349Z,3.50
2022-07-27T06:49:12.757Z,3.30
2022-07-27T06:51:41.127Z,3.50
2022-07-27T06:54:09.108Z,3.17
2022-07-27T06:56:36.961Z,3.10
2022-07-27T06:59:04.931Z,2.80
2022-07-27T07:01:34.336Z,2.90
2022-07-27T07:04:02.731Z,2.92
2022-07-27T07:06:30.675Z,2.00
2022-07-27T07:08:58.580Z,1.83
2022-07-27T07:11:26.454Z,1.80
2022-07-27T07:13:54.299Z,1.40
2022-07-27T07:16:22.284Z,1.20
2022-07-27T07:18:52.623Z,1.50
2022-07-27T07:21:20.753Z,1.50
2022-07-27T07:23:48.689Z,1.27
2022-07-27T07:26:16.691Z,1.30
2022-07-27T07:28:44.670Z,1.20
2022-07-27T07:31:12.739Z,1.20
2022-07-27T07:33:40.709Z,1.25
2022-07-27T07:36:13.547Z,1.20
2022-07-27T07:38:42.991Z,1.27
2022-07-27T07:41:11.036Z,1.15
2022-07-27T07:43:39.752Z,1.33
2022-07-27T07:46:08.630Z,1.40
2022-07-27T07:48:36.671Z,1.20
2022-07-27T07:51:04.703Z,1.05
2022-07-27T07:53:37.866Z,1.20
2022-07-27T07:56:09.347Z,1.15
2022-07-27T07:58:37.271Z,1.17
2022-07-27T08:01:05.217Z,1.20
2022-07-27T08:03:33.107Z,1.10
2022-07-27T08:06:01.331Z,1.20
2022-07-27T08:08:30.837Z,1.25
2022-07-27T08:11:00.289Z,1.13
2022-07-27T08:13:28.217Z,1.30
2022-07-27T08:15:56.799Z,1.40
2022-07-27T08:18:24.792Z,1.40
2022-07-27T08:20:52.735Z,1.60
2022-07-27T08:23:20.766Z,1.30
2022-07-27T08:25:48.634Z,1.42
2022-07-27T08:28:17.920Z,1.30
2022-07-27T08:30:46.476Z,1.23
2022-07-27T08:33:14.531Z,1.30
2022-07-27T08:35:42.659Z,1.27
2022-07-27T08:38:10.913Z,1.30
2022-07-27T08:40:42.585Z,1.20
2022-07-27T08:43:21.497Z,1.30
2022-07-27T08:45:58.280Z,1.40
2022-07-27T08:48:27.333Z,1.35
2022-07-27T08:50:55.524Z,1.40
2022-07-27T08:53:24.356Z,1.50
2022-07-27T08:55:52.551Z,1.50
2022-07-27T08:58:20.748Z,1.23
2022-07-27T09:00:49.852Z,1.50
2022-07-27T09:03:21.630Z,1.40
2022-07-27T09:05:51.744Z,1.30
2022-07-27T09:08:41.834Z,1.40
2022-07-27T09:11:16.503Z,1.30
2022-07-27T09:13:44.538Z,1.27
2022-07-27T09:16:20.810Z,1.48
2022-07-27T09:19:00.475Z,1.40
2022-07-27T09:21:29.247Z,1.40
2022-07-27T09:24:23.507Z,1.63
2022-07-27T09:27:03.726Z,1.58
2022-07-27T09:29:35.952Z,1.42
2022-07-27T09:32:15.438Z,1.60
2022-07-27T09:34:45.566Z,1.90
2022-07-27T09:37:24.889Z,1.50
2022-07-27T09:40:10.293Z,1.50
2022-07-27T09:43:08.749Z,1.40
2022-07-27T09:45:32.585Z,1.55
2022-07-27T09:48:09.760Z,1.40
2022-07-27T09:50:53.062Z,1.77
2022-07-27T09:53:42.832Z,1.60
2022-07-27T09:56:15.890Z,1.55
2022-07-27T09:58:46.923Z,1.75
2022-07-27T10:01:17.391Z,1.65
2022-07-27T10:03:46.759Z,1.60
2022-07-27T10:06:16.670Z,1.95
2022-07-27T10:08:49.722Z,1.40
2022-07-27T10:11:18.908Z,1.50
2022-07-27T10:13:47.413Z,1.70
2022-07-27T10:16:17.492Z,1.80
2022-07-27T10:18:57.446Z,1.50
2022-07-27T10:21:27.962Z,1.58
2022-07-27T10:23:58.982Z,1.45
2022-07-27T10:26:33.820Z,1.40
2022-07-27T10:29:05.239Z,1.80
2022-07-27T10:31:35.417Z,1.70
2022-07-27T10:34:06.103Z,1.65
2022-07-27T10:36:54.526Z,1.60
2022-07-27T10:39:30.137Z,1.60
2022-07-27T10:42:19.927Z,1.67
2022-07-27T10:45:08.496Z,1.50
2022-07-27T10:47:39.956Z,1.60
2022-07-27T10:50:33.000Z,1.40
2022-07-27T10:53:05.766Z,1.63
2022-07-27T10:55:50.347Z,1.50
2022-07-27T10:58:51.208Z,1.52
2022-07-27T11:01:21.465Z,1.67
2022-07-27T11:03:53.383Z,1.63
2022-07-27T11:06:36.313Z,1.50
2022-07-27T11:10:00.300Z,1.58
2022-07-27T11:12:01.632Z,1.60
2022-07-27T11:14:31.836Z,1.70
2022-07-27T11:17:24.387Z,1.67
2022-07-27T11:19:54.008Z,1.60
2022-07-27T11:22:53.607Z,1.40
2022-07-27T11:25:20.436Z,1.40
2022-07-27T11:27:49.320Z,1.50
2022-07-27T11:30:25.617Z,1.40
2022-07-27T11:32:54.069Z,1.50
2022-07-27T11:35:22.258Z,1.30
2022-07-27T11:38:04.991Z,1.30
2022-07-27T11:43:36.997Z,1.53
2022-07-27T11:46:16.160Z,1.40
2022-07-27T11:49:06.620Z,1.63
2022-07-27T11:51:36.931Z,1.55
2022-07-27T11:54:06.650Z,1.70
2022-07-27T11:56:38.813Z,1.85
2022-07-27T11:59:12.805Z,1.50
2022-07-27T12:01:43.253Z,1.58
2022-07-27T12:04:18.706Z,1.60
2022-07-27T12:06:48.604Z,1.60
2022-07-27T12:09:18.536Z,1.40
2022-07-27T12:11:54.588Z,1.55
2022-07-27T12:14:37.947Z,1.45
2022-07-27T12:17:20.688Z,1.60
2022-07-27T12:19:53.392Z,1.40
2022-07-27T12:22:36.870Z,1.70
2022-07-27T12:25:16.135Z,1.48
2022-07-27T12:27:57.154Z,1.45
2022-07-27T12:30:33.972Z,1.40
2022-07-27T12:33:02.752Z,1.38
2022-07-27T12:35:37.863Z,1.20
2022-07-27T12:38:10.141Z,1.50
2022-07-27T12:40:45.440Z,1.40
2022-07-27T12:43:17.851Z,1.70
2022-07-27T12:45:47.359Z,1.50
2022-07-27T12:48:17.440Z,1.35
2022-07-27T12:50:47.124Z,1.60
2022-07-27T12:53:17.013Z,1.42
2022-07-27T12:55:46.052Z,1.40
2022-07-27T12:58:15.369Z,1.30
2022-07-27T13:00:43.883Z,1.60
2022-07-27T13:03:11.942Z,1.42
2022-07-27T13:05:39.860Z,1.80
2022-07-27T13:08:08.640Z,1.60
2022-07-27T13:10:37.409Z,1.60
2022-07-27T13:13:08.411Z,2.00
2022-07-27T13:15:38.023Z,1.77
2022-07-27T13:18:06.383Z,1.92
2022-07-27T13:20:36.679Z,1.75
2022-07-27T13:23:07.585Z,1.70
2022-07-27T13:25:41.094Z,1.63
2022-07-27T13:28:11.222Z,1.83
2022-07-27T13:30:40.803Z,1.70
2022-07-27T13:33:08.825Z,1.70
2022-07-27T13:35:36.855Z,1.60
2022-07-27T13:38:04.827Z,1.90
2022-07-27T13:40:32.694Z,1.50
2022-07-27T13:43:00.687Z,1.50
2022-07-27T13:45:28.804Z,1.50
2022-07-27T13:48:12.855Z,1.50
2022-07-27T13:50:40.979Z,1.40
2022-07-27T13:53:08.899Z,1.27
2022-07-27T13:55:36.848Z,1.25
2022-07-27T13:58:04.765Z,1.50
2022-07-27T14:00:32.697Z,1.40
2022-07-27T14:03:00.617Z,1.58
2022-07-27T14:05:30.765Z,1.30
2022-07-27T14:08:00.058Z,1.38
2022-07-27T14:10:39.686Z,1.40
2022-07-27T14:13:11.483Z,1.27
2022-07-27T14:15:50.610Z,1.70
2022-07-27T14:18:24.126Z,1.30
2022-07-27T14:20:53.537Z,1.25
2022-07-27T14:23:21.935Z,1.48
2022-07-27T14:25:49.858Z,1.40
2022-07-27T14:28:17.779Z,1.52
2022-07-27T14:30:46.121Z,1.17
2022-07-27T14:33:14.288Z,1.27
2022-07-27T14:35:45.154Z,1.40
2022-07-27T14:38:27.775Z,1.30
2022-07-27T14:40:59.114Z,1.30
2022-07-27T14:43:27.292Z,1.40
2022-07-27T14:45:55.204Z,1.40
2022-07-27T14:48:42.152Z,1.27
2022-07-27T14:51:11.575Z,1.50
2022-07-27T14:53:40.765Z,1.40
2022-07-27T14:56:08.682Z,1.27
2022-07-27T14:58:36.640Z,1.20
2022-07-27T15:01:04.712Z,1.15
2022-07-27T15:03:32.772Z,1.20
2022-07-27T15:06:00.684Z,1.50
2022-07-27T15:08:28.824Z,1.38
2022-07-27T15:10:58.840Z,1.50
2022-07-27T15:13:26.811Z,1.30
2022-07-27T15:15:56.325Z,1.30
2022-07-27T15:18:24.413Z,1.40
2022-07-27T15:20:52.399Z,1.40
2022-07-27T15:23:20.343Z,1.48
2022-07-27T15:25:48.279Z,1.50
2022-07-27T15:28:17.710Z,1.50
2022-07-27T15:30:45.593Z,1.30
2022-07-27T15:33:13.511Z,1.23
2022-07-27T15:35:41.512Z,1.60
2022-07-27T15:38:09.392Z,1.40
2022-07-27T15:40:41.534Z,1.33
2022-07-27T15:43:12.292Z,1.50
2022-07-27T15:45:43.173Z,1.50
2022-07-27T15:48:12.365Z,1.33
2022-07-27T15:50:42.298Z,1.50
2022-07-27T15:53:10.900Z,1.48
2022-07-27T15:55:39.371Z,1.30
2022-07-27T15:58:07.951Z,1.15
2022-07-27T16:00:40.583Z,1.40
2022-07-27T16:03:11.624Z,1.30
2022-07-27T16:05:40.906Z,1.40
2022-07-27T16:08:09.861Z,1.35
2022-07-27T16:10:38.568Z,1.50
2022-07-27T16:13:06.832Z,1.17
2022-07-27T16:15:52.370Z,1.20
2022-07-27T16:18:24.447Z,1.40
2022-07-27T16:20:52.736Z,1.30
2022-07-27T16:23:21.464Z,1.20
2022-07-27T16:26:04.021Z,1.40
2022-07-27T16:28:34.396Z,1.27
2022-07-27T16:31:03.210Z,1.30
2022-07-27T16:33:32.638Z,1.20
2022-07-27T16:36:00.688Z,1.40
2022-07-27T16:38:28.631Z,1.25
2022-07-27T16:40:56.523Z,1.35
2022-07-27T16:43:36.290Z,1.30
2022-07-27T16:46:08.825Z,1.30
2022-07-27T16:48:42.376Z,1.42
2022-07-27T16:51:15.098Z,1.35
2022-07-27T16:53:48.916Z,1.40
2022-07-27T16:56:17.923Z,1.27
2022-07-27T16:58:45.806Z,1.50
2022-07-27T17:01:22.270Z,1.50
2022-07-27T17:03:56.844Z,1.50
2022-07-27T17:06:25.808Z,1.38
2022-07-27T17:08:56.618Z,1.50
2022-07-27T17:11:25.021Z,1.40
2022-07-27T17:13:58.983Z,1.40
2022-07-27T17:16:29.078Z,1.50
2022-07-27T17:18:58.454Z,1.50
2022-07-27T17:21:26.468Z,1.40
2022-07-27T17:23:54.471Z,1.50
2022-07-27T17:26:22.810Z,1.50
2022-07-27T17:28:52.767Z,1.50
2022-07-27T17:31:21.787Z,1.30
2022-07-27T17:33:50.530Z,1.38
2022-07-27T17:36:22.904Z,1.20
2022-07-27T17:38:54.436Z,1.60
2022-07-27T17:41:24.934Z,1.40
2022-07-27T17:43:54.708Z,1.40
2022-07-27T17:46:23.063Z,1.38
2022-07-27T17:48:51.783Z,1.38
2022-07-27T17:51:25.156Z,1.50
2022-07-27T17:53:53.118Z,1.30
2022-07-27T17:56:21.069Z,1.53
2022-07-27T17:58:48.898Z,1.73
2022-07-27T18:01:16.960Z,1.47
2022-07-27T18:03:47.340Z,1.47
2022-07-27T18:06:17.722Z,1.30
2022-07-27T18:08:47.030Z,1.20
2022-07-27T18:11:14.960Z,1.20
2022-07-27T18:13:43.156Z,1.37
2022-07-27T18:16:13.238Z,1.10
2022-07-27T18:18:42.557Z,1.20
2022-07-27T18:21:11.478Z,1.10
2022-07-27T18:23:39.990Z,1.43
2022-07-27T18:26:10.907Z,1.03
2022-07-27T18:28:40.202Z,1.13
2022-07-27T18:31:09.526Z,1.50
2022-07-27T18:33:37.870Z,1.20
2022-07-27T18:36:06.478Z,1.30
2022-07-27T18:38:34.515Z,1.20
2022-07-27T18:41:04.898Z,1.13
2022-07-27T18:43:34.226Z,1.13
2022-07-27T18:46:02.429Z,1.37
2022-07-27T18:48:32.642Z,1.37
2022-07-27T18:51:00.532Z,1.07
2022-07-27T18:53:28.503Z,1.30
2022-07-27T18:55:56.943Z,1.30
2022-07-27T18:58:27.476Z,1.30
2022-07-27T19:00:58.229Z,1.50
2022-07-27T19:03:27.685Z,1.50
2022-07-27T19:05:56.174Z,1.43
2022-07-27T19:08:24.611Z,1.20
2022-07-27T19:10:52.536Z,1.43
2022-07-27T19:13:21.065Z,1.63
2022-07-27T19:15:49.010Z,1.80
2022-07-27T19:18:18.439Z,2.40
2022-07-27T19:20:50.155Z,1.60
2022-07-27T19:23:18.167Z,1.63
2022-07-27T19:25:46.169Z,3.17
2022-07-27T19:28:18.866Z,2.40
2022-07-27T19:30:47.283Z,2.00
2022-07-27T19:33:15.965Z,2.13
2022-07-27T19:35:47.752Z,2.33
2022-07-27T19:38:15.792Z,2.03
2022-07-27T19:40:45.640Z,1.83
2022-07-27T19:43:14.649Z,1.60
2022-07-27T19:45:43.083Z,1.77
2022-07-27T19:48:11.352Z,1.60
2022-07-27T19:50:42.775Z,2.50
2022-07-27T19:53:12.340Z,3.50
2022-07-27T19:55:40.264Z,6.37
2022-07-27T19:58:08.141Z,7.70
2022-07-27T20:00:36.115Z,5.70
2022-07-27T20:03:04.229Z,9.23
2022-07-27T20:05:32.194Z,7.43
2022-07-27T20:08:00.117Z,6.10
2022-07-27T20:10:31.023Z,5.10
2022-07-27T20:12:58.926Z,3.30
2022-07-27T20:15:32.196Z,2.87
2022-07-27T20:18:07.674Z,2.00
2022-07-27T20:20:35.672Z,2.13
2022-07-27T20:23:03.624Z,1.90
2022-07-27T20:25:35.372Z,4.27
2022-07-27T20:28:05.041Z,3.90
2022-07-27T20:30:33.523Z,3.40
2022-07-27T20:33:01.438Z,1.80
2022-07-27T20:35:37.821Z,1.93
2022-07-27T20:38:07.712Z,3.17
2022-07-27T20:40:39.708Z,2.83
2022-07-27T20:43:07.717Z,2.30
2022-07-27T20:45:35.671Z,2.47
2022-07-27T20:48:03.563Z,2.47
2022-07-27T20:50:31.497Z,2.50
2022-07-27T20:53:03.940Z,1.90
2022-07-27T20:55:32.721Z,4.00
2022-07-27T20:58:03.365Z,2.20
2022-07-27T21:00:31.211Z,2.00
2022-07-27T21:03:00.381Z,2.00
2022-07-27T21:05:28.415Z,2.00
2022-07-27T21:07:57.038Z,1.80
2022-07-27T21:10:25.870Z,1.90
2022-07-27T21:12:54.035Z,2.73
2022-07-27T21:15:23.244Z,6.00
2022-07-27T21:18:01.883Z,5.80
2022-07-27T21:20:29.918Z,5.33
2022-07-27T21:23:15.605Z,6.13
2022-07-27T21:25:44.132Z,4.53
2022-07-27T21:28:16.829Z,2.40
2022-07-27T21:30:47.991Z,3.33
2022-07-27T21:33:19.013Z,2.73
2022-07-27T21:35:46.976Z,2.83
2022-07-27T21:38:14.891Z,3.03
2022-07-27T21:40:42.804Z,2.83
2022-07-27T21:43:10.739Z,3.30
2022-07-27T21:45:38.779Z,3.17
2022-07-27T21:48:19.105Z,2.30
2022-07-27T21:50:46.993Z,2.37
2022-07-27T21:53:14.940Z,3.10
2022-07-27T21:55:42.992Z,3.07
2022-07-27T21:58:12.255Z,4.40
2022-07-27T22:00:40.605Z,6.43
2022-07-27T22:03:09.395Z,4.47
2022-07-27T22:05:38.760Z,3.90
2022-07-27T22:08:06.720Z,2.50
2022-07-27T22:10:34.746Z,2.20
2022-07-27T22:13:03.591Z,1.80
2022-07-27T22:15:31.496Z,2.33
2022-07-27T22:17:59.401Z,2.60
2022-07-27T22:20:27.320Z,3.77
2022-07-27T22:22:56.592Z,2.30
2022-07-27T22:25:24.517Z,3.20
2022-07-27T22:27:52.458Z,2.20
2022-07-27T22:30:20.407Z,2.00
2022-07-27T22:32:48.268Z,2.30
2022-07-27T22:35:16.399Z,2.83
2022-07-27T22:37:44.429Z,1.90
2022-07-27T22:40:13.914Z,2.27
2022-07-27T22:42:43.929Z,2.10
2022-07-27T22:45:12.917Z,4.63
2022-07-27T22:47:40.803Z,3.73
2022-07-27T22:50:10.143Z,3.10
2022-07-27T22:52:42.823Z,3.20
2022-07-27T22:55:10.910Z,2.57
2022-07-27T22:57:40.155Z,3.13
2022-07-27T23:00:10.007Z,2.00
2022-07-27T23:02:39.063Z,1.70
2022-07-27T23:05:07.975Z,1.80
2022-07-27T23:07:35.916Z,1.60
2022-07-27T23:10:03.925Z,1.40
2022-07-27T23:12:31.827Z,1.53
2022-07-27T23:15:01.032Z,1.50
2022-07-27T23:17:28.902Z,2.27
2022-07-27T23:19:56.763Z,2.70
2022-07-27T23:22:24.616Z,1.73
2022-07-27T23:24:52.500Z,2.50
2022-07-27T23:27:20.370Z,1.70
2022-07-27T23:29:48.280Z,1.47
2022-07-27T23:32:17.526Z,1.70
2022-07-27T23:34:45.430Z,1.50
2022-07-27T23:37:14.859Z,1.70
2022-07-27T23:39:42.824Z,1.60
2022-07-27T23:42:10.676Z,1.33
2022-07-27T23:44:38.573Z,1.50
2022-07-27T23:47:06.532Z,1.43
2022-07-27T23:49:35.820Z,1.70
2022-07-27T23:52:04.582Z,1.43
2022-07-27T23:54:32.620Z,1.50
2022-07-27T23:57:00.789Z,1.50
2022-07-27T23:59:28.750Z,1.23
